Time;durP1;ratioP1;P1;durP2;ratioP2;P2;SDS_P1;SDS_P2;PMS_P1;PMS_P2;Temp;Humidity;BMP_temperature;BMP_pressure;BME280_temperature;BME280_humidity;BME280_pressure;Samples;Min_cycle;Max_cycle;Signal;HPM_P1;HPM_P2
2022/03/01 00:00:12;;;;;;;;;;;5.50;48.60;;;;;;5083631;28;19918;-85
2022/03/01 00:02:38;;;;;;;;;;;5.50;49.00;;;;;;5088707;28;19908;-85
2022/03/01 00:05:04;;;;;;;;;;;5.60;49.00;;;;;;5092961;28;19919;-86
2022/03/01 00:07:29;;;;;;;;;;;5.70;49.00;;;;;;5091821;28;19912;-85
2022/03/01 00:09:55;;;;;;;;;;;5.80;48.80;;;;;;5092783;28;20018;-86
2022/03/01 00:12:20;;;;;;;;;;;5.80;48.60;;;;;;5091903;28;20274;-85
2022/03/01 00:14:46;;;;;;;;;;;5.80;48.70;;;;;;5073049;28;20289;-85
2022/03/01 00:17:11;;;;;;;;;;;5.80;49.80;;;;;;5072888;28;20269;-85
2022/03/01 00:19:37;;;;;;;;;;;5.80;51.60;;;;;;5072943;28;20276;-86
2022/03/01 00:22:03;;;;;;;;;;;5.60;50.20;;;;;;5072513;28;20369;-85
2022/03/01 00:24:28;;;;;;;;;;;5.50;50.30;;;;;;5075369;28;19913;-85
2022/03/01 00:26:54;;;;;;;;;;;5.40;50.30;;;;;;5076536;28;20328;-85
2022/03/01 00:29:19;;;;;;;;;;;5.40;51.50;;;;;;5076233;28;19978;-85
2022/03/01 00:31:46;;;;;;;;;;;5.10;54.20;;;;;;5076489;28;19915;-85
2022/03/01 00:34:11;;;;;;;;;;;5.00;53.70;;;;;;5086972;28;20319;-85
2022/03/01 00:36:37;;;;;;;;;;;4.80;53.20;;;;;;5091983;28;19920;-85
2022/03/01 00:39:06;;;;;;;;;;;4.70;54.20;;;;;;5076168;28;20328;-85
2022/03/01 00:41:32;;;;;;;;;;;4.60;55.10;;;;;;5080676;28;19919;-85
2022/03/01 00:43:58;;;;;;;;;;;4.50;56.20;;;;;;5096340;28;19908;-85
2022/03/01 00:46:26;;;;;;;;;;;4.50;55.90;;;;;;5096240;28;20003;-85
2022/03/01 00:48:52;;;;;;;;;;;4.50;56.20;;;;;;5078618;28;19916;-85
2022/03/01 00:51:18;;;;;;;;;;;4.40;57.00;;;;;;5075929;28;19909;-85
2022/03/01 00:53:43;;;;;;;;;;;4.30;57.80;;;;;;5087220;28;19995;-85
2022/03/01 00:56:09;;;;;;;;;;;4.20;58.60;;;;;;5079503;28;20019;-85
2022/03/01 00:58:34;;;;;;;;;;;4.10;58.50;;;;;;5081812;28;19959;-85
2022/03/01 01:01:00;;;;;;;;;;;4.00;59.40;;;;;;5091403;28;19919;-85
2022/03/01 01:03:25;;;;;;;;;;;3.90;59.60;;;;;;5095954;28;20274;-85
2022/03/01 01:05:51;;;;;;;;;;;3.80;60.00;;;;;;5095896;28;19908;-85
2022/03/01 01:08:16;;;;;;;;;;;3.70;60.50;;;;;;5081780;28;19920;-85
2022/03/01 01:10:42;;;;;;;;;;;3.70;61.10;;;;;;5075581;28;20316;-85
2022/03/01 01:13:08;;;;;;;;;;;3.60;61.90;;;;;;5075538;28;20320;-85
2022/03/01 01:15:33;;;;;;;;;;;3.40;62.60;;;;;;5077766;28;20015;-85
2022/03/01 01:17:59;;;;;;;;;;;3.40;63.10;;;;;;5080520;28;20011;-85
2022/03/01 01:20:24;;;;;;;;;;;3.30;63.00;;;;;;5095627;28;19977;-85
2022/03/01 01:24:44;;;;;;;;;;;3.30;63.10;;;;;;5130892;27;19922;-85
2022/03/01 01:27:10;;;;;;;;;;;3.30;63.20;;;;;;5131506;28;19961;-85
2022/03/01 01:29:35;;;;;;;;;;;3.20;63.10;;;;;;5131324;28;19912;-85
2022/03/01 01:32:01;;;;;;;;;;;3.20;63.40;;;;;;5130505;28;19921;-85
2022/03/01 01:34:27;;;;;;;;;;;3.20;63.30;;;;;;5114925;28;19951;-85
2022/03/01 01:36:52;;;;;;;;;;;3.20;63.40;;;;;;5111118;28;20254;-85
2022/03/01 01:39:18;;;;;;;;;;;3.20;63.30;;;;;;5128705;28;20293;-85
2022/03/01 01:41:43;;;;;;;;;;;3.20;63.30;;;;;;5131177;28;19922;-85
2022/03/01 01:44:09;;;;;;;;;;;3.20;62.90;;;;;;5112401;28;19976;-85
2022/03/01 01:46:34;;;;;;;;;;;3.20;62.90;;;;;;5110624;28;20325;-85
2022/03/01 01:49:00;;;;;;;;;;;3.10;62.90;;;;;;5128751;28;20336;-85
2022/03/01 01:51:26;;;;;;;;;;;3.10;63.00;;;;;;5131047;28;19911;-85
2022/03/01 01:53:52;;;;;;;;;;;3.10;63.00;;;;;;5128641;28;19908;-85
2022/03/01 01:56:18;;;;;;;;;;;3.10;63.20;;;;;;5130919;28;20002;-85
2022/03/01 01:58:43;;;;;;;;;;;3.00;63.10;;;;;;5115784;28;19921;-85
2022/03/01 02:01:09;;;;;;;;;;;2.90;63.00;;;;;;5110377;28;20000;-85
2022/03/01 02:03:35;;;;;;;;;;;3.00;62.90;;;;;;5111221;28;19977;-85
2022/03/01 02:06:00;;;;;;;;;;;3.00;63.10;;;;;;5110529;28;20326;-85
2022/03/01 02:08:30;;;;;;;;;;;2.90;63.30;;;;;;5113730;28;19915;-85
2022/03/01 02:10:55;;;;;;;;;;;2.90;63.90;;;;;;5130717;28;19912;-85
2022/03/01 02:13:21;;;;;;;;;;;2.80;65.60;;;;;;5141303;27;19907;-85
2022/03/01 02:15:47;;;;;;;;;;;2.70;66.80;;;;;;5151250;27;19917;-85
2022/03/01 02:18:13;;;;;;;;;;;2.70;66.00;;;;;;5140775;27;20014;-85
2022/03/01 02:20:39;;;;;;;;;;;2.80;64.90;;;;;;5129788;28;19912;-85
2022/03/01 02:23:05;;;;;;;;;;;2.80;64.40;;;;;;5129047;28;20292;-86
2022/03/01 02:25:30;;;;;;;;;;;2.80;63.70;;;;;;5130388;28;20040;-85
2022/03/01 02:27:56;;;;;;;;;;;2.90;64.00;;;;;;5129993;28;19919;-85
2022/03/01 02:30:21;;;;;;;;;;;3.00;63.50;;;;;;5130242;28;19908;-85
2022/03/01 02:32:47;;;;;;;;;;;3.00;63.00;;;;;;5130268;28;20003;-85
2022/03/01 02:35:13;;;;;;;;;;;3.00;62.50;;;;;;5121719;28;19915;-85
2022/03/01 02:37:39;;;;;;;;;;;3.00;62.10;;;;;;5116032;28;19919;-85
2022/03/01 02:40:07;;;;;;;;;;;2.90;62.40;;;;;;5116474;28;19919;-85
2022/03/01 02:42:33;;;;;;;;;;;2.90;62.30;;;;;;5116382;28;19908;-85
2022/03/01 02:44:58;;;;;;;;;;;2.80;62.30;;;;;;5116421;28;20305;-85
2022/03/01 02:47:24;;;;;;;;;;;2.70;62.70;;;;;;5116325;28;19938;-85
2022/03/01 02:49:50;;;;;;;;;;;2.60;63.10;;;;;;5116314;28;19930;-85
2022/03/01 02:52:15;;;;;;;;;;;2.60;62.60;;;;;;5115984;28;19916;-85
2022/03/01 02:54:41;;;;;;;;;;;2.70;62.50;;;;;;5114876;28;19908;-85
2022/03/01 02:57:07;;;;;;;;;;;2.70;63.00;;;;;;5115953;28;19958;-85
2022/03/01 02:59:32;;;;;;;;;;;2.70;63.20;;;;;;5116149;28;19907;-85
2022/03/01 03:01:58;;;;;;;;;;;2.80;63.30;;;;;;5115782;27;19914;-85
2022/03/01 03:04:24;;;;;;;;;;;2.80;63.30;;;;;;5115969;28;19924;-85
2022/03/01 03:06:50;;;;;;;;;;;2.80;63.30;;;;;;5115439;28;19957;-85
2022/03/01 03:09:15;;;;;;;;;;;2.90;62.90;;;;;;5115834;28;19908;-85
2022/03/01 03:11:41;;;;;;;;;;;2.90;63.10;;;;;;5115854;28;19908;-85
2022/03/01 03:14:07;;;;;;;;;;;2.90;63.80;;;;;;5115784;28;19908;-85
2022/03/01 03:16:32;;;;;;;;;;;2.90;63.60;;;;;;5115468;28;20281;-85
2022/03/01 03:18:58;;;;;;;;;;;2.90;63.30;;;;;;5115708;28;20049;-85
2022/03/01 03:21:23;;;;;;;;;;;2.90;62.50;;;;;;5115453;28;19956;-85
2022/03/01 03:23:49;;;;;;;;;;;2.80;62.90;;;;;;5115418;28;19927;-85
2022/03/01 03:30:58;;;;;;;;;;;2.70;62.80;;;;;;5111038;27;19919;-85
2022/03/01 03:37:00;;;;;;;;;;;2.50;63.40;;;;;;5110361;27;20398;-85
2022/03/01 03:39:26;;;;;;;;;;;2.40;63.40;;;;;;5111049;28;19999;-85
2022/03/01 03:44:10;;;;;;;;;;;2.50;62.70;;;;;;5111122;27;19912;-85
2022/03/01 03:46:36;;;;;;;;;;;2.50;62.10;;;;;;5103808;28;19919;-86
2022/03/01 03:49:02;;;;;;;;;;;2.50;62.40;;;;;;5090649;28;19913;-86
2022/03/01 03:51:28;;;;;;;;;;;2.60;61.90;;;;;;5095860;28;19912;-85
2022/03/01 03:53:53;;;;;;;;;;;2.70;61.50;;;;;;5110882;28;19915;-86
2022/03/01 03:56:19;;;;;;;;;;;2.70;60.90;;;;;;5105040;28;19974;-85
2022/03/01 03:58:45;;;;;;;;;;;2.70;60.90;;;;;;5090453;28;19915;-85
2022/03/01 04:02:55;;;;;;;;;;;2.80;60.40;;;;;;5111154;27;19912;-85
2022/03/01 04:11:36;;;;;;;;;;;2.60;61.30;;;;;;5111090;27;19912;-86
2022/03/01 04:15:27;;;;;;;;;;;2.30;62.80;;;;;;5111162;27;19919;-85
2022/03/01 04:17:53;;;;;;;;;;;2.30;62.80;;;;;;5093276;28;19912;-85
2022/03/01 04:20:21;;;;;;;;;;;2.20;63.20;;;;;;5090684;28;20304;-85
2022/03/01 04:22:47;;;;;;;;;;;2.10;63.90;;;;;;5106049;28;20369;-85
2022/03/01 04:25:12;;;;;;;;;;;2.00;64.70;;;;;;5110919;28;19938;-85
2022/03/01 04:27:38;;;;;;;;;;;2.00;65.80;;;;;;5094572;28;19912;-85
2022/03/01 04:30:05;;;;;;;;;;;2.00;66.30;;;;;;5090361;28;19909;-85
2022/03/01 04:32:31;;;;;;;;;;;2.10;66.20;;;;;;5136229;27;19912;-85
2022/03/01 04:34:57;;;;;;;;;;;2.10;67.00;;;;;;5110619;28;19916;-85
2022/03/01 04:37:22;;;;;;;;;;;2.10;66.90;;;;;;5109431;28;19942;-86
2022/03/01 04:39:48;;;;;;;;;;;2.10;67.20;;;;;;5110615;28;19908;-85
2022/03/01 04:42:14;;;;;;;;;;;2.10;67.20;;;;;;5100499;28;19913;-85
2022/03/01 04:44:39;;;;;;;;;;;2.10;67.60;;;;;;5090162;28;19913;-86
2022/03/01 04:47:05;;;;;;;;;;;2.20;67.80;;;;;;5099588;28;19912;-86
2022/03/01 04:49:31;;;;;;;;;;;2.20;67.70;;;;;;5110658;28;20285;-85
2022/03/01 04:51:57;;;;;;;;;;;2.20;67.80;;;;;;5102196;28;19926;-85
2022/03/01 04:54:22;;;;;;;;;;;1.90;67.70;;;;;;5089938;28;19913;-85
2022/03/01 04:56:48;;;;;;;;;;;1.50;68.00;;;;;;5114733;28;19999;-85
2022/03/01 04:59:13;;;;;;;;;;;1.50;68.40;;;;;;5089884;28;19909;-85
2022/03/01 05:01:39;;;;;;;;;;;1.40;69.40;;;;;;5089856;28;19919;-85
2022/03/01 05:04:04;;;;;;;;;;;1.20;68.30;;;;;;5089829;28;19946;-85
2022/03/01 05:06:30;;;;;;;;;;;1.00;69.10;;;;;;5090853;28;19912;-85
2022/03/01 05:08:56;;;;;;;;;;;0.90;68.60;;;;;;5089876;28;19919;-85
2022/03/01 05:11:22;;;;;;;;;;;0.90;69.80;;;;;;5089609;28;19909;-85
2022/03/01 05:13:47;;;;;;;;;;;0.90;70.50;;;;;;5089503;28;19946;-85
2022/03/01 05:16:13;;;;;;;;;;;1.00;70.50;;;;;;5097384;28;19912;-85
2022/03/01 05:18:38;;;;;;;;;;;1.00;70.60;;;;;;5109916;28;20300;-84
2022/03/01 05:21:04;;;;;;;;;;;1.10;69.90;;;;;;5104996;28;20448;-84
2022/03/01 05:23:30;;;;;;;;;;;1.30;68.10;;;;;;5089400;28;19908;-84
2022/03/01 05:25:55;;;;;;;;;;;1.30;68.00;;;;;;5085774;28;19919;-84
2022/03/01 05:28:21;;;;;;;;;;;1.20;68.60;;;;;;5095913;28;20411;-84
2022/03/01 05:30:46;;;;;;;;;;;1.00;68.60;;;;;;5078908;28;19913;-83
2022/03/01 05:33:12;;;;;;;;;;;0.80;69.10;;;;;;5090009;28;19912;-83
2022/03/01 05:35:37;;;;;;;;;;;0.70;69.80;;;;;;5079672;28;19912;-84
2022/03/01 05:38:03;;;;;;;;;;;0.70;72.10;;;;;;5089812;28;20297;-84
2022/03/01 05:40:29;;;;;;;;;;;0.70;72.40;;;;;;5096135;28;19915;-83
2022/03/01 05:42:55;;;;;;;;;;;0.60;72.00;;;;;;5091040;28;19954;-83
2022/03/01 05:45:21;;;;;;;;;;;0.50;74.40;;;;;;5082824;28;19912;-83
2022/03/01 05:47:47;;;;;;;;;;;0.50;76.70;;;;;;5091098;28;19912;-83
2022/03/01 05:50:13;;;;;;;;;;;0.30;76.70;;;;;;5094371;28;19908;-83
2022/03/01 05:52:38;;;;;;;;;;;0.20;75.80;;;;;;5094814;28;19913;-84
2022/03/01 05:55:06;;;;;;;;;;;0.10;74.60;;;;;;5088717;28;19922;-83
2022/03/01 05:57:31;;;;;;;;;;;0.00;74.10;;;;;;5090916;28;20000;-83
2022/03/01 05:59:57;;;;;;;;;;;0.00;73.80;;;;;;5090881;28;20331;-84
2022/03/01 06:02:23;;;;;;;;;;;0.10;73.50;;;;;;5086308;28;20625;-83
2022/03/01 06:04:48;;;;;;;;;;;0.20;73.10;;;;;;5092669;28;19912;-84
2022/03/01 06:07:14;;;;;;;;;;;0.30;72.80;;;;;;5082963;28;19913;-85
2022/03/01 06:09:39;;;;;;;;;;;0.50;72.30;;;;;;5094441;28;19966;-84
2022/03/01 06:12:05;;;;;;;;;;;0.80;71.70;;;;;;5075044;28;19909;-84
2022/03/01 06:14:31;;;;;;;;;;;0.90;70.80;;;;;;5075938;28;19920;-85
2022/03/01 06:16:56;;;;;;;;;;;1.00;70.80;;;;;;5076975;28;19917;-85
2022/03/01 06:19:22;;;;;;;;;;;1.00;70.40;;;;;;5076945;28;20015;-85
2022/03/01 06:21:47;;;;;;;;;;;1.00;69.90;;;;;;5077076;28;20007;-85
2022/03/01 06:24:13;;;;;;;;;;;1.00;69.90;;;;;;5080878;28;19912;-84
2022/03/01 06:26:39;;;;;;;;;;;1.00;70.40;;;;;;5092980;28;19912;-85
2022/03/01 06:29:05;;;;;;;;;;;0.90;70.60;;;;;;5088081;28;19927;-85
2022/03/01 06:31:30;;;;;;;;;;;0.80;71.20;;;;;;5085625;28;19919;-84
2022/03/01 06:33:56;;;;;;;;;;;0.90;70.80;;;;;;5086087;28;19917;-84
2022/03/01 06:36:25;;;;;;;;;;;0.90;69.70;;;;;;5088694;28;20011;-84
2022/03/01 06:38:51;;;;;;;;;;;1.00;69.60;;;;;;5079374;28;19920;-84
2022/03/01 06:41:16;;;;;;;;;;;1.10;69.90;;;;;;5083415;28;19920;-84
2022/03/01 06:43:42;;;;;;;;;;;0.90;71.80;;;;;;5090656;28;19957;-84
2022/03/01 06:46:08;;;;;;;;;;;0.80;72.30;;;;;;5078313;28;19920;-84
2022/03/01 06:48:33;;;;;;;;;;;0.80;71.40;;;;;;5083386;28;19911;-84
2022/03/01 06:50:59;;;;;;;;;;;0.90;71.10;;;;;;5081754;28;20082;-84
2022/03/01 06:53:25;;;;;;;;;;;1.00;70.50;;;;;;5086647;28;19916;-84
2022/03/01 06:55:50;;;;;;;;;;;1.20;69.30;;;;;;5081369;28;21821;-85
2022/03/01 06:58:16;;;;;;;;;;;1.40;69.30;;;;;;5087864;28;19916;-84
2022/03/01 07:00:42;;;;;;;;;;;1.50;69.00;;;;;;5079439;28;19931;-84
2022/03/01 07:03:07;;;;;;;;;;;1.70;68.50;;;;;;5097588;28;20015;-85
2022/03/01 07:05:33;;;;;;;;;;;1.80;68.40;;;;;;5082359;28;19950;-85
2022/03/01 07:07:59;;;;;;;;;;;2.00;68.50;;;;;;5085322;28;19912;-84
2022/03/01 07:10:24;;;;;;;;;;;2.00;68.40;;;;;;5091206;28;19912;-84
2022/03/01 07:12:50;;;;;;;;;;;1.90;68.10;;;;;;5087003;28;20372;-84
2022/03/01 07:15:15;;;;;;;;;;;1.80;68.60;;;;;;5085779;28;19920;-84
2022/03/01 07:17:41;;;;;;;;;;;1.90;68.50;;;;;;5088020;28;19916;-84
2022/03/01 07:20:07;;;;;;;;;;;2.00;69.10;;;;;;5092564;28;20286;-84
2022/03/01 07:22:33;;;;;;;;;;;2.10;68.80;;;;;;5081389;28;20033;-84
2022/03/01 07:24:59;;;;;;;;;;;2.10;68.60;;;;;;5081582;28;20428;-84
2022/03/01 07:27:24;;;;;;;;;;;2.20;68.20;;;;;;5087629;28;19912;-84
2022/03/01 07:29:50;;;;;;;;;;;2.20;67.70;;;;;;5081330;28;19960;-84
2022/03/01 07:32:15;;;;;;;;;;;2.40;67.80;;;;;;5081547;28;20416;-84
2022/03/01 07:34:42;;;;;;;;;;;2.40;68.40;;;;;;5080368;28;20289;-84
2022/03/01 07:37:08;;;;;;;;;;;2.50;67.10;;;;;;5083979;28;19958;-84
2022/03/01 07:39:33;;;;;;;;;;;2.70;66.70;;;;;;5078060;28;19916;-83
2022/03/01 07:41:59;;;;;;;;;;;2.70;65.30;;;;;;5087842;28;20095;-84
2022/03/01 07:44:24;;;;;;;;;;;2.70;66.10;;;;;;5081325;28;19931;-84
2022/03/01 07:46:50;;;;;;;;;;;2.80;66.50;;;;;;5082945;28;20317;-85
2022/03/01 07:49:15;;;;;;;;;;;3.00;66.20;;;;;;5081438;28;20065;-84
2022/03/01 07:51:41;;;;;;;;;;;3.10;65.70;;;;;;5075743;28;20285;-83
2022/03/01 07:54:06;;;;;;;;;;;3.20;65.30;;;;;;5085997;28;19923;-82
2022/03/01 07:56:32;;;;;;;;;;;3.40;65.10;;;;;;5088776;28;19912;-83
2022/03/01 07:58:58;;;;;;;;;;;3.50;65.20;;;;;;5090326;28;20018;-82
2022/03/01 08:01:24;;;;;;;;;;;3.70;64.20;;;;;;5083199;28;20304;-82
2022/03/01 08:03:49;;;;;;;;;;;3.70;64.10;;;;;;5087373;28;19920;-83
2022/03/01 08:06:16;;;;;;;;;;;3.90;64.00;;;;;;5079686;28;19912;-82
2022/03/01 08:08:41;;;;;;;;;;;3.90;62.40;;;;;;5091747;28;19951;-81
2022/03/01 08:11:07;;;;;;;;;;;3.90;61.50;;;;;;5088054;28;19955;-83
2022/03/01 08:13:33;;;;;;;;;;;4.00;61.20;;;;;;5091422;28;19924;-82
2022/03/01 08:15:58;;;;;;;;;;;4.00;61.40;;;;;;5079855;28;19912;-81
2022/03/01 08:18:24;;;;;;;;;;;4.20;61.40;;;;;;5079861;28;19913;-82
2022/03/01 08:20:49;;;;;;;;;;;4.20;60.90;;;;;;5093341;28;19933;-85
2022/03/01 08:23:15;;;;;;;;;;;4.30;61.20;;;;;;5079046;28;19920;-83
2022/03/01 08:25:41;;;;;;;;;;;4.40;61.10;;;;;;5079618;28;20014;-83
2022/03/01 08:28:06;;;;;;;;;;;4.50;61.40;;;;;;5081590;28;19912;-82
2022/03/01 08:30:32;;;;;;;;;;;4.60;59.50;;;;;;5087317;28;19912;-84
2022/03/01 08:32:57;;;;;;;;;;;4.80;59.90;;;;;;5084139;28;19912;-81
2022/03/01 08:35:23;;;;;;;;;;;4.90;59.20;;;;;;5093534;28;19916;-83
2022/03/01 08:37:51;;;;;;;;;;;5.00;58.40;;;;;;5090846;28;19911;-82
2022/03/01 08:40:19;;;;;;;;;;;5.10;58.80;;;;;;5089032;28;20370;-82
2022/03/01 08:42:45;;;;;;;;;;;5.30;57.00;;;;;;5086807;28;19924;-82
2022/03/01 08:45:10;;;;;;;;;;;5.40;55.70;;;;;;5085058;28;19912;-84
2022/03/01 08:47:36;;;;;;;;;;;5.60;53.80;;;;;;5089061;28;20396;-83
2022/03/01 08:50:02;;;;;;;;;;;5.70;53.80;;;;;;5091995;28;19912;-82
2022/03/01 08:52:27;;;;;;;;;;;5.90;53.20;;;;;;5081386;28;19981;-82
2022/03/01 08:54:53;;;;;;;;;;;6.00;51.80;;;;;;5086629;28;19935;-83
2022/03/01 08:57:19;;;;;;;;;;;6.10;50.90;;;;;;5085316;28;19920;-83
2022/03/01 08:59:44;;;;;;;;;;;6.40;50.10;;;;;;5083800;28;19958;-82
2022/03/01 09:02:10;;;;;;;;;;;6.40;49.10;;;;;;5091360;28;19963;-82
2022/03/01 09:04:36;;;;;;;;;;;6.60;48.30;;;;;;5083918;28;20006;-82
2022/03/01 09:07:03;;;;;;;;;;;6.60;49.10;;;;;;5084019;28;19920;-82
2022/03/01 09:09:30;;;;;;;;;;;6.70;46.40;;;;;;5087676;28;19971;-83
2022/03/01 09:11:55;;;;;;;;;;;6.90;46.70;;;;;;5094795;28;20003;-83
2022/03/01 09:14:21;;;;;;;;;;;7.10;45.30;;;;;;5092375;28;20018;-83
2022/03/01 09:16:46;;;;;;;;;;;7.20;45.10;;;;;;5091455;28;20033;-82
2022/03/01 09:19:14;;;;;;;;;;;7.30;42.80;;;;;;5090775;28;20018;-83
2022/03/01 09:21:39;;;;;;;;;;;7.40;41.70;;;;;;5088171;28;20462;-84
2022/03/01 09:24:05;;;;;;;;;;;7.50;42.90;;;;;;5083693;28;19920;-83
2022/03/01 09:26:31;;;;;;;;;;;7.70;36.50;;;;;;5087691;28;20366;-82
2022/03/01 09:28:56;;;;;;;;;;;7.80;36.00;;;;;;5092647;28;19913;-82
2022/03/01 09:31:22;;;;;;;;;;;7.90;34.90;;;;;;5090533;28;19997;-83
2022/03/01 09:33:47;;;;;;;;;;;7.90;34.70;;;;;;5088458;28;20377;-82
2022/03/01 09:36:13;;;;;;;;;;;7.80;36.60;;;;;;5081166;28;19912;-82
2022/03/01 09:38:39;;;;;;;;;;;7.90;37.00;;;;;;5087804;28;19912;-81
2022/03/01 09:41:05;;;;;;;;;;;8.00;38.30;;;;;;5082129;28;20297;-83
2022/03/01 09:43:34;;;;;;;;;;;8.00;37.80;;;;;;5094834;28;19919;-82
2022/03/01 09:46:00;;;;;;;;;;;8.00;36.70;;;;;;5087625;28;19963;-82
2022/03/01 09:48:25;;;;;;;;;;;8.00;35.00;;;;;;5087795;28;19951;-82
2022/03/01 09:50:51;;;;;;;;;;;8.00;35.00;;;;;;5081780;28;19959;-82
2022/03/01 09:53:17;;;;;;;;;;;8.10;34.00;;;;;;5087825;28;19916;-82
2022/03/01 09:55:42;;;;;;;;;;;8.20;35.20;;;;;;5086810;28;19912;-82
2022/03/01 09:58:08;;;;;;;;;;;8.40;36.10;;;;;;5088310;28;19912;-82
2022/03/01 10:00:34;;;;;;;;;;;8.50;35.30;;;;;;5089834;28;19958;-82
2022/03/01 10:02:59;;;;;;;;;;;8.40;34.90;;;;;;5090841;28;19916;-82
2022/03/01 10:05:51;;;;;;;;;;;8.40;35.30;;;;;;5087303;28;19919;-81
2022/03/01 10:08:18;;;;;;;;;;;8.50;37.00;;;;;;5081609;28;19920;-83
2022/03/01 10:10:45;;;;;;;;;;;8.60;35.00;;;;;;5084458;28;19928;-82
2022/03/01 10:13:13;;;;;;;;;;;8.60;38.20;;;;;;5083977;28;19947;-82
2022/03/01 10:15:39;;;;;;;;;;;8.70;33.80;;;;;;5083452;28;19928;-83
2022/03/01 10:18:11;;;;;;;;;;;8.70;34.40;;;;;;5088864;28;19912;-81
2022/03/01 10:20:39;;;;;;;;;;;8.60;33.30;;;;;;5088340;28;19920;-82
2022/03/01 10:23:04;;;;;;;;;;;8.60;33.70;;;;;;5091679;28;19940;-83
2022/03/01 10:25:30;;;;;;;;;;;8.70;33.00;;;;;;5085891;28;20015;-81
2022/03/01 10:27:56;;;;;;;;;;;8.70;32.80;;;;;;5085631;28;20331;-82
2022/03/01 10:30:32;;;;;;;;;;;8.80;33.30;;;;;;5090449;28;19912;-81
2022/03/01 10:33:05;;;;;;;;;;;8.80;30.70;;;;;;5089607;28;20318;-82
2022/03/01 10:35:30;;;;;;;;;;;9.00;33.10;;;;;;5077425;28;19920;-84
2022/03/01 10:37:56;;;;;;;;;;;9.20;32.80;;;;;;5088522;28;20263;-85
2022/03/01 10:40:22;;;;;;;;;;;9.10;31.60;;;;;;5091759;28;19912;-84
2022/03/01 10:43:02;;;;;;;;;;;9.20;33.30;;;;;;5081415;28;19963;-85
2022/03/01 10:45:41;;;;;;;;;;;9.30;34.20;;;;;;5081898;28;19912;-84
2022/03/01 10:48:08;;;;;;;;;;;9.50;34.70;;;;;;5092776;28;19935;-84
2022/03/01 10:50:33;;;;;;;;;;;9.40;33.10;;;;;;5087778;28;20034;-84
2022/03/01 10:52:59;;;;;;;;;;;9.20;31.30;;;;;;5080638;28;19960;-85
2022/03/01 10:55:26;;;;;;;;;;;9.30;33.40;;;;;;5090085;28;19939;-85
2022/03/01 10:57:56;;;;;;;;;;;9.40;34.00;;;;;;5091164;28;19920;-85
2022/03/01 11:00:21;;;;;;;;;;;9.30;31.50;;;;;;5085536;28;19920;-85
2022/03/01 11:02:47;;;;;;;;;;;9.30;32.10;;;;;;5087946;28;20026;-85
2022/03/01 11:05:12;;;;;;;;;;;9.30;32.10;;;;;;5085769;28;19919;-85
2022/03/01 11:07:39;;;;;;;;;;;9.50;31.80;;;;;;5093509;28;20096;-85
2022/03/01 11:10:06;;;;;;;;;;;9.50;33.30;;;;;;5085105;28;19992;-85
2022/03/01 11:12:33;;;;;;;;;;;9.50;31.50;;;;;;5090042;28;19913;-85
2022/03/01 11:15:09;;;;;;;;;;;9.70;34.20;;;;;;5093884;28;19920;-85
2022/03/01 11:17:59;;;;;;;;;;;9.70;30.20;;;;;;5093304;28;20362;-86
2022/03/01 11:20:27;;;;;;;;;;;9.80;30.70;;;;;;5093944;28;19915;-85
2022/03/01 11:22:56;;;;;;;;;;;9.90;31.40;;;;;;5093504;28;19912;-85
2022/03/01 11:25:23;;;;;;;;;;;10.00;33.60;;;;;;5093930;28;19946;-85
2022/03/01 11:27:50;;;;;;;;;;;10.10;31.90;;;;;;5091252;28;20396;-85
2022/03/01 11:30:16;;;;;;;;;;;9.90;31.40;;;;;;5073539;28;19958;-85
2022/03/01 11:32:43;;;;;;;;;;;9.90;32.20;;;;;;5073552;28;19954;-86
2022/03/01 11:35:35;;;;;;;;;;;10.10;35.20;;;;;;5093369;28;20006;-85
2022/03/01 11:38:08;;;;;;;;;;;10.20;33.00;;;;;;5089333;28;20010;-85
2022/03/01 11:40:38;;;;;;;;;;;10.40;33.50;;;;;;5093624;28;19908;-85
2022/03/01 11:43:10;;;;;;;;;;;10.60;31.70;;;;;;5093649;28;19908;-85
2022/03/01 11:45:37;;;;;;;;;;;10.50;31.90;;;;;;5093621;28;20285;-85
2022/03/01 11:48:13;;;;;;;;;;;10.40;30.80;;;;;;5092124;28;19912;-85
2022/03/01 11:50:50;;;;;;;;;;;10.40;32.70;;;;;;5093596;28;19908;-86
2022/03/01 11:53:16;;;;;;;;;;;10.70;31.40;;;;;;5089536;28;20366;-85
2022/03/01 11:55:50;;;;;;;;;;;11.10;31.50;;;;;;5093450;28;19912;-85
2022/03/01 11:58:17;;;;;;;;;;;10.80;32.30;;;;;;5091314;28;19920;-85
2022/03/01 12:00:42;;;;;;;;;;;10.60;32.80;;;;;;5074950;28;19908;-85
2022/03/01 12:03:12;;;;;;;;;;;10.60;32.50;;;;;;5073107;28;20419;-85
2022/03/01 12:05:38;;;;;;;;;;;10.60;31.60;;;;;;5084791;28;19919;-86
2022/03/01 12:08:06;;;;;;;;;;;10.90;30.80;;;;;;5092016;28;19915;-85
2022/03/01 12:10:31;;;;;;;;;;;11.30;33.00;;;;;;5075069;28;19913;-86
2022/03/01 12:12:57;;;;;;;;;;;11.60;30.70;;;;;;5073030;28;20388;-86
2022/03/01 12:15:35;;;;;;;;;;;11.70;32.00;;;;;;5098518;22;19964;-86
2022/03/01 12:18:12;;;;;;;;;;;12.00;30.10;;;;;;5091796;28;19972;-85
2022/03/01 12:20:39;;;;;;;;;;;12.20;30.50;;;;;;5085901;28;19912;-86
2022/03/01 12:23:06;;;;;;;;;;;12.20;29.20;;;;;;5077066;28;19913;-85
2022/03/01 12:25:33;;;;;;;;;;;11.90;31.60;;;;;;5073172;28;19908;-85
2022/03/01 12:28:00;;;;;;;;;;;11.60;29.70;;;;;;5076827;28;19996;-85
2022/03/01 12:30:25;;;;;;;;;;;12.20;30.30;;;;;;5086003;28;19970;-85
2022/03/01 12:32:55;;;;;;;;;;;12.60;29.00;;;;;;5084696;28;19951;-85
2022/03/01 12:35:22;;;;;;;;;;;12.80;29.20;;;;;;5083534;28;19920;-85
2022/03/01 12:37:48;;;;;;;;;;;13.20;28.70;;;;;;5085785;28;19920;-85
2022/03/01 12:40:14;;;;;;;;;;;13.20;29.80;;;;;;5085427;28;19926;-84
2022/03/01 12:42:39;;;;;;;;;;;13.60;28.40;;;;;;5088019;28;19912;-85
2022/03/01 12:45:05;;;;;;;;;;;13.90;27.50;;;;;;5070831;28;19921;-85
2022/03/01 12:47:30;;;;;;;;;;;14.30;27.50;;;;;;5088802;28;20408;-85
2022/03/01 12:49:56;;;;;;;;;;;14.90;26.70;;;;;;5088139;28;20378;-85
2022/03/01 12:52:22;;;;;;;;;;;15.00;24.40;;;;;;5083084;28;19960;-85
2022/03/01 12:54:49;;;;;;;;;;;15.30;24.90;;;;;;5087036;28;20027;-85
2022/03/01 12:57:15;;;;;;;;;;;15.20;25.60;;;;;;5080641;28;20003;-85
2022/03/01 12:59:41;;;;;;;;;;;15.30;25.70;;;;;;5086881;28;20015;-85
2022/03/01 13:02:07;;;;;;;;;;;15.40;24.40;;;;;;5085218;28;19912;-85
2022/03/01 13:04:34;;;;;;;;;;;15.90;24.10;;;;;;5101816;28;19964;-85
2022/03/01 13:07:00;;;;;;;;;;;15.90;23.70;;;;;;5090746;28;19912;-87
2022/03/01 13:09:25;;;;;;;;;;;16.90;23.70;;;;;;5093335;28;19920;-85
2022/03/01 13:11:51;;;;;;;;;;;16.80;22.60;;;;;;5079676;28;20331;-86
2022/03/01 13:14:18;;;;;;;;;;;16.60;23.00;;;;;;5082180;28;20015;-85
2022/03/01 13:16:45;;;;;;;;;;;16.10;26.30;;;;;;5072748;28;19913;-86
2022/03/01 13:19:11;;;;;;;;;;;16.10;24.70;;;;;;5079304;28;20464;-86
2022/03/01 13:21:42;;;;;;;;;;;16.50;23.90;;;;;;5075041;28;19920;-86
2022/03/01 13:24:12;;;;;;;;;;;16.80;25.30;;;;;;5056215;28;19966;-85
2022/03/01 13:26:38;;;;;;;;;;;16.70;23.60;;;;;;5074345;28;19934;-86
2022/03/01 13:29:08;;;;;;;;;;;17.00;23.00;;;;;;5078385;28;20370;-86
2022/03/01 13:31:34;;;;;;;;;;;17.80;22.10;;;;;;5072066;28;20345;-86
2022/03/01 13:34:00;;;;;;;;;;;18.40;22.50;;;;;;5082339;28;19960;-86
2022/03/01 13:36:27;;;;;;;;;;;18.80;22.90;;;;;;5084621;28;19958;-85
2022/03/01 13:39:12;;;;;;;;;;;18.50;23.50;;;;;;5076156;28;19916;-85
2022/03/01 13:41:39;;;;;;;;;;;18.10;21.90;;;;;;5073104;28;19978;-85
2022/03/01 13:44:23;;;;;;;;;;;18.20;21.30;;;;;;5068571;28;19917;-84
2022/03/01 13:46:55;;;;;;;;;;;18.50;20.10;;;;;;5072734;28;19920;-86
2022/03/01 13:49:28;;;;;;;;;;;18.60;20.70;;;;;;5077266;28;19921;-86
2022/03/01 13:52:13;;;;;;;;;;;18.70;20.10;;;;;;5073309;28;21294;-85
2022/03/01 13:54:39;;;;;;;;;;;19.00;20.70;;;;;;5078856;28;19927;-85
2022/03/01 13:57:06;;;;;;;;;;;18.20;21.10;;;;;;5082482;28;20358;-85
2022/03/01 13:59:32;;;;;;;;;;;17.50;22.10;;;;;;5076050;28;19923;-85
2022/03/01 14:01:58;;;;;;;;;;;18.10;21.50;;;;;;5076227;28;19920;-85
2022/03/01 14:04:24;;;;;;;;;;;19.10;19.90;;;;;;5073176;28;20373;-86
2022/03/01 14:06:53;;;;;;;;;;;19.50;19.60;;;;;;5074818;28;20025;-86
2022/03/01 14:09:19;;;;;;;;;;;19.40;20.50;;;;;;5074422;28;19956;-86
2022/03/01 14:11:52;;;;;;;;;;;18.70;21.10;;;;;;5080253;28;19943;-86
2022/03/01 14:14:17;;;;;;;;;;;18.80;20.20;;;;;;5071513;28;19925;-86
2022/03/01 14:16:43;;;;;;;;;;;19.00;20.00;;;;;;5073743;28;19912;-85
2022/03/01 14:19:09;;;;;;;;;;;18.80;19.60;;;;;;5073481;28;19912;-86
2022/03/01 14:21:35;;;;;;;;;;;18.80;19.50;;;;;;5073900;28;19959;-85
2022/03/01 14:24:00;;;;;;;;;;;18.80;21.20;;;;;;5070342;28;20396;-85
2022/03/01 14:26:27;;;;;;;;;;;18.30;21.10;;;;;;5073497;28;19959;-85
2022/03/01 14:28:53;;;;;;;;;;;18.20;21.20;;;;;;5073235;28;19970;-85
2022/03/01 14:31:20;;;;;;;;;;;18.40;20.10;;;;;;5066763;28;19912;-85
2022/03/01 14:33:45;;;;;;;;;;;18.60;20.60;;;;;;5074440;28;19918;-86
2022/03/01 14:36:11;;;;;;;;;;;19.30;20.60;;;;;;5059292;28;19969;-86
2022/03/01 14:38:37;;;;;;;;;;;19.40;19.90;;;;;;5071407;28;19920;-86
2022/03/01 14:41:03;;;;;;;;;;;19.80;20.10;;;;;;5078400;28;20370;-86
2022/03/01 14:43:28;;;;;;;;;;;20.20;19.60;;;;;;5072314;28;19912;-86